createdAt,value
2023-02-16T00:01:05.148Z,85.97
2023-02-16T00:03:33.750Z,86.73
2023-02-16T00:06:03.300Z,87.22
2023-02-16T00:08:31.411Z,87.62
2023-02-16T00:11:17.018Z,87.41
2023-02-16T00:13:48.746Z,87.12
2023-02-16T00:16:18.306Z,87.31
2023-02-16T00:18:46.508Z,87.05
2023-02-16T00:21:16.043Z,87.76
2023-02-16T00:23:44.181Z,87.69
2023-02-16T00:26:15.476Z,87.79
2023-02-16T00:28:44.648Z,87.80
2023-02-16T00:31:17.816Z,88.47
2023-02-16T00:33:46.116Z,88.50
2023-02-16T00:36:15.657Z,88.77
2023-02-16T00:38:43.774Z,88.86
2023-02-16T00:41:37.803Z,89.03
2023-02-16T00:44:06.629Z,88.78
2023-02-16T00:46:34.905Z,89.45
2023-02-16T00:49:04.144Z,90.03
2023-02-16T00:51:33.621Z,89.64
2023-02-16T00:54:01.787Z,89.95
2023-02-16T00:56:30.173Z,90.28
2023-02-16T00:58:58.311Z,89.86
2023-02-16T01:01:26.487Z,89.84
2023-02-16T01:03:54.577Z,89.76
2023-02-16T01:06:41.758Z,90.33
2023-02-16T01:09:33.306Z,90.49
2023-02-16T01:12:02.738Z,90.51
2023-02-16T01:14:31.309Z,90.32
2023-02-16T01:17:01.037Z,89.92
2023-02-16T01:19:29.968Z,90.45
2023-02-16T01:21:58.071Z,90.26
2023-02-16T01:24:31.096Z,90.15
2023-02-16T01:26:59.206Z,90.30
2023-02-16T01:29:27.323Z,90.01
2023-02-16T01:31:55.649Z,89.76
2023-02-16T01:34:25.508Z,89.86
2023-02-16T01:36:53.932Z,89.59
2023-02-16T01:39:22.074Z,89.30
2023-02-16T01:42:12.685Z,89.49
2023-02-16T01:44:43.919Z,90.17
2023-02-16T01:47:17.865Z,89.84
2023-02-16T01:49:45.986Z,90.41
2023-02-16T01:52:25.484Z,89.95
2023-02-16T01:54:54.675Z,90.01
2023-02-16T01:57:28.620Z,89.96
2023-02-16T02:00:08.552Z,89.70
2023-02-16T02:02:43.970Z,89.65
2023-02-16T02:05:37.970Z,89.49
2023-02-16T02:08:13.564Z,89.08
2023-02-16T02:10:46.821Z,89.29
2023-02-16T02:13:20.730Z,89.36
2023-02-16T02:15:48.900Z,89.60
2023-02-16T02:18:17.453Z,89.33
2023-02-16T02:21:15.614Z,89.80
2023-02-16T02:23:52.409Z,89.76
2023-02-16T02:26:55.118Z,90.12
2023-02-16T02:29:57.278Z,90.22
2023-02-16T02:32:31.769Z,90.31
2023-02-16T02:35:03.251Z,90.57
2023-02-16T02:37:40.895Z,90.46
2023-02-16T02:40:12.996Z,90.68
2023-02-16T02:42:45.469Z,90.85
2023-02-16T02:45:15.394Z,91.26
2023-02-16T02:47:45.308Z,91.03
2023-02-16T02:50:32.173Z,91.23
2023-02-16T02:53:02.179Z,90.76
2023-02-16T02:55:48.501Z,90.72
2023-02-16T02:58:35.562Z,90.34
2023-02-16T03:01:03.961Z,90.20
2023-02-16T03:03:35.109Z,90.52
2023-02-16T03:06:05.753Z,91.30
2023-02-16T03:08:35.027Z,91.27
2023-02-16T03:11:23.419Z,91.15
2023-02-16T03:13:53.834Z,90.99
2023-02-16T03:16:24.777Z,90.63
2023-02-16T03:19:10.094Z,90.95
2023-02-16T03:21:55.826Z,90.38
2023-02-16T03:24:43.613Z,90.64
2023-02-16T03:27:29.136Z,91.19
2023-02-16T03:29:58.677Z,91.63
2023-02-16T03:32:26.952Z,92.19
2023-02-16T03:34:55.020Z,92.13
2023-02-16T03:37:23.276Z,92.14
2023-02-16T03:40:08.929Z,92.85
2023-02-16T03:42:37.073Z,93.02
2023-02-16T03:45:07.353Z,93.46
2023-02-16T03:47:35.512Z,93.65
2023-02-16T03:50:03.586Z,94.15
2023-02-16T03:52:31.972Z,94.67
2023-02-16T03:55:00.580Z,95.51
2023-02-16T03:57:28.636Z,96.21
2023-02-16T03:59:59.165Z,96.67
2023-02-16T04:02:28.985Z,97.15
2023-02-16T04:04:57.190Z,97.75
2023-02-16T04:07:25.611Z,98.47
2023-02-16T04:09:53.717Z,100.00
2023-02-16T04:12:38.825Z,100.00
2023-02-16T04:15:08.256Z,100.00
2023-02-16T04:17:37.745Z,100.00
2023-02-16T04:20:07.226Z,100.00
2023-02-16T04:22:35.325Z,100.00
2023-02-16T04:25:03.394Z,100.00
2023-02-16T04:27:31.497Z,100.00
2023-02-16T04:29:59.548Z,100.00
2023-02-16T04:32:27.689Z,100.00
2023-02-16T04:34:57.447Z,100.00
2023-02-16T04:37:25.523Z,100.00
2023-02-16T04:39:53.638Z,100.00
2023-02-16T04:42:21.716Z,100.00
2023-02-16T04:44:49.844Z,100.00
2023-02-16T04:47:17.918Z,100.00
2023-02-16T04:49:48.063Z,100.00
2023-02-16T04:52:19.380Z,100.00
2023-02-16T04:54:47.507Z,100.00
2023-02-16T04:57:16.028Z,100.00
2023-02-16T04:59:44.095Z,100.00
2023-02-16T05:02:12.475Z,100.00
2023-02-16T05:04:42.112Z,100.00
2023-02-16T05:07:10.273Z,100.00
2023-02-16T05:09:39.757Z,100.00
2023-02-16T05:12:25.446Z,100.00
2023-02-16T05:14:53.610Z,100.00
2023-02-16T05:17:22.820Z,100.00
2023-02-16T05:19:51.633Z,100.00
2023-02-16T05:22:19.793Z,100.00
2023-02-16T05:24:49.406Z,100.00
2023-02-16T05:27:18.146Z,100.00
2023-02-16T05:29:46.530Z,100.00
2023-02-16T05:32:14.727Z,100.00
2023-02-16T05:34:44.434Z,100.00
2023-02-16T05:37:12.626Z,100.00
2023-02-16T05:39:40.734Z,100.00
2023-02-16T05:42:10.610Z,100.00
2023-02-16T05:44:38.813Z,100.00
2023-02-16T05:47:06.932Z,100.00
2023-02-16T05:49:35.069Z,100.00
2023-02-16T05:52:03.403Z,100.00
2023-02-16T05:54:31.649Z,100.00
2023-02-16T05:57:00.116Z,100.00
2023-02-16T05:59:29.739Z,100.00
2023-02-16T06:01:57.892Z,100.00
2023-02-16T06:04:25.996Z,100.00
2023-02-16T06:06:54.061Z,100.00
2023-02-16T06:09:22.482Z,100.00
2023-02-16T06:11:50.566Z,100.00
2023-02-16T06:14:19.960Z,100.00
2023-02-16T06:16:50.120Z,100.00
2023-02-16T06:19:18.869Z,100.00
2023-02-16T06:21:46.972Z,100.00
2023-02-16T06:24:15.568Z,100.00
2023-02-16T06:26:43.736Z,100.00
2023-02-16T06:29:12.024Z,100.00
2023-02-16T06:31:40.234Z,100.00
2023-02-16T06:34:09.812Z,100.00
2023-02-16T06:36:39.044Z,100.00
2023-02-16T06:39:08.714Z,100.00
2023-02-16T06:41:40.211Z,100.00
2023-02-16T06:44:09.295Z,100.00
2023-02-16T06:46:37.495Z,100.00
2023-02-16T06:49:06.029Z,100.00
2023-02-16T06:51:35.494Z,100.00
2023-02-16T06:54:03.609Z,100.00
2023-02-16T06:56:31.724Z,100.00
2023-02-16T06:58:59.810Z,100.00
2023-02-16T07:01:27.942Z,100.00
2023-02-16T07:03:56.879Z,100.00
2023-02-16T07:06:25.340Z,100.00
2023-02-16T07:08:54.903Z,100.00
2023-02-16T07:11:22.961Z,100.00
2023-02-16T07:13:51.093Z,100.00
2023-02-16T07:16:19.551Z,100.00
2023-02-16T07:18:47.764Z,100.00
2023-02-16T07:21:15.926Z,100.00
2023-02-16T07:23:44.035Z,100.00
2023-02-16T07:26:13.587Z,100.00
2023-02-16T07:28:41.739Z,100.00
2023-02-16T07:31:10.881Z,100.00
2023-02-16T07:33:39.178Z,100.00
2023-02-16T07:36:08.166Z,100.00
2023-02-16T07:38:36.284Z,100.00
2023-02-16T07:41:07.865Z,100.00
2023-02-16T07:43:39.460Z,100.00
2023-02-16T07:46:07.935Z,100.00
2023-02-16T07:48:36.158Z,100.00
2023-02-16T07:51:05.090Z,100.00
2023-02-16T07:53:33.507Z,100.00
2023-02-16T07:56:01.634Z,100.00
2023-02-16T07:58:29.736Z,100.00
2023-02-16T08:01:07.218Z,100.00
2023-02-16T08:03:35.386Z,100.00
2023-02-16T08:06:03.929Z,100.00
2023-02-16T08:08:32.159Z,100.00
2023-02-16T08:11:01.791Z,100.00
2023-02-16T08:13:29.961Z,100.00
2023-02-16T08:15:59.516Z,100.00
2023-02-16T08:18:27.622Z,100.00
2023-02-16T08:21:04.116Z,100.00
2023-02-16T08:23:32.857Z,98.89
2023-02-16T08:26:01.220Z,97.84
2023-02-16T08:28:29.707Z,96.06
2023-02-16T08:30:59.862Z,94.72
2023-02-16T08:33:28.458Z,95.06
2023-02-16T08:35:56.556Z,95.20
2023-02-16T08:38:25.566Z,94.82
2023-02-16T08:40:54.101Z,94.10
2023-02-16T08:43:22.620Z,93.18
2023-02-16T08:45:51.821Z,92.11
2023-02-16T08:48:21.396Z,90.13
2023-02-16T08:50:53.827Z,88.56
2023-02-16T08:53:23.157Z,87.89
2023-02-16T08:55:55.738Z,86.59
2023-02-16T08:58:24.507Z,84.63
2023-02-16T09:00:52.688Z,85.61
2023-02-16T09:03:22.241Z,83.40
2023-02-16T09:05:51.287Z,84.07
2023-02-16T09:08:19.479Z,82.80
2023-02-16T09:10:47.611Z,83.52
2023-02-16T09:13:16.241Z,82.66
2023-02-16T09:15:44.668Z,81.14
2023-02-16T09:18:14.122Z,81.18
2023-02-16T09:20:46.737Z,80.94
2023-02-16T09:23:15.201Z,80.89
2023-02-16T09:25:43.367Z,80.78
2023-02-16T09:28:11.684Z,80.54
2023-02-16T09:30:39.893Z,79.97
2023-02-16T09:33:08.322Z,79.71
2023-02-16T09:35:36.498Z,80.08
2023-02-16T09:38:07.759Z,79.96
2023-02-16T09:40:36.172Z,78.33
2023-02-16T09:43:08.377Z,77.51
2023-02-16T09:45:40.881Z,77.64
2023-02-16T09:48:12.152Z,76.37
2023-02-16T09:50:53.387Z,75.93
2023-02-16T09:53:27.501Z,73.68
2023-02-16T09:55:59.694Z,73.16
2023-02-16T09:58:41.897Z,74.66
2023-02-16T10:01:14.576Z,73.15
2023-02-16T10:03:51.486Z,71.08
2023-02-16T10:06:42.293Z,70.34
2023-02-16T10:09:13.630Z,71.88
2023-02-16T10:11:46.635Z,70.21
2023-02-16T10:14:19.765Z,70.16
2023-02-16T10:16:51.960Z,68.76
2023-02-16T10:19:21.906Z,68.71
2023-02-16T10:21:52.587Z,68.68
2023-02-16T10:24:22.106Z,68.59
2023-02-16T10:26:52.137Z,68.60
2023-02-16T10:29:22.204Z,67.75
2023-02-16T10:31:53.028Z,67.42
2023-02-16T10:34:23.189Z,67.42
2023-02-16T10:37:20.806Z,66.74
2023-02-16T10:39:53.034Z,65.88
2023-02-16T10:42:25.840Z,65.81
2023-02-16T10:44:57.695Z,65.35
2023-02-16T10:47:31.199Z,65.28
2023-02-16T10:49:59.366Z,65.71
2023-02-16T10:52:27.573Z,66.23
2023-02-16T10:54:57.067Z,64.36
2023-02-16T10:57:27.601Z,64.60
2023-02-16T10:59:56.352Z,64.54
2023-02-16T11:02:26.237Z,63.60
2023-02-16T11:04:54.457Z,64.14
2023-02-16T11:07:23.401Z,62.84
2023-02-16T11:09:53.164Z,64.43
2023-02-16T11:12:30.054Z,62.31
2023-02-16T11:15:02.472Z,61.30
2023-02-16T11:17:31.436Z,61.96
2023-02-16T11:20:01.930Z,60.40
2023-02-16T11:22:32.645Z,60.99
2023-02-16T11:25:22.054Z,60.96
2023-02-16T11:27:57.098Z,61.76
2023-02-16T11:30:32.498Z,60.08
2023-02-16T11:33:02.129Z,60.74
2023-02-16T11:35:31.834Z,59.78
2023-02-16T11:38:00.356Z,59.85
2023-02-16T11:40:29.851Z,60.53
2023-02-16T11:42:59.933Z,60.26
2023-02-16T11:45:31.314Z,60.89
2023-02-16T11:48:01.733Z,60.81
2023-02-16T11:50:30.446Z,60.61
2023-02-16T11:52:59.343Z,60.66
2023-02-16T11:55:32.655Z,62.13
2023-02-16T11:58:16.569Z,61.80
2023-02-16T12:00:49.029Z,60.89
2023-02-16T12:03:45.612Z,62.60
2023-02-16T12:06:23.480Z,61.73
2023-02-16T12:09:01.464Z,62.67
2023-02-16T12:11:34.161Z,63.15
2023-02-16T12:14:13.532Z,63.75
2023-02-16T12:16:44.661Z,64.65
2023-02-16T12:19:20.292Z,64.16
2023-02-16T12:21:49.397Z,64.37
2023-02-16T12:24:28.495Z,64.61
2023-02-16T12:26:57.981Z,64.06
2023-02-16T12:29:37.960Z,64.50
2023-02-16T12:32:12.123Z,64.11
2023-02-16T12:34:48.813Z,64.66
2023-02-16T12:37:21.318Z,64.85
2023-02-16T12:39:52.686Z,65.08
2023-02-16T12:42:36.970Z,64.27
2023-02-16T12:45:10.046Z,64.20
2023-02-16T12:47:41.003Z,65.07
2023-02-16T12:50:12.645Z,65.12
2023-02-16T12:52:41.547Z,65.08
2023-02-16T12:55:18.018Z,64.78
2023-02-16T12:57:50.813Z,64.78
2023-02-16T13:00:24.057Z,64.53
2023-02-16T13:02:54.175Z,64.27
2023-02-16T13:05:23.227Z,63.98
2023-02-16T13:07:52.117Z,64.49
2023-02-16T13:10:22.135Z,63.63
2023-02-16T13:12:51.985Z,64.70
2023-02-16T13:15:23.152Z,64.39
2023-02-16T13:17:52.491Z,64.28
2023-02-16T13:20:21.380Z,64.34
2023-02-16T13:23:11.860Z,64.75
2023-02-16T13:25:54.229Z,64.50
2023-02-16T13:28:40.696Z,65.50
2023-02-16T13:31:22.450Z,65.19
2023-02-16T13:33:57.316Z,64.86
2023-02-16T13:36:33.981Z,64.83
2023-02-16T13:39:13.825Z,65.74
2023-02-16T13:41:46.733Z,65.81
2023-02-16T13:44:15.882Z,66.60
2023-02-16T13:46:47.046Z,65.54
2023-02-16T13:49:29.965Z,65.74
2023-02-16T13:51:58.564Z,65.73
2023-02-16T13:54:29.343Z,66.18
2023-02-16T13:56:57.379Z,66.32
2023-02-16T14:00:02.088Z,66.09
2023-02-16T14:02:54.489Z,66.40
2023-02-16T14:05:39.503Z,67.47
2023-02-16T14:08:13.308Z,67.77
2023-02-16T14:10:58.952Z,68.53
2023-02-16T14:13:29.497Z,68.93
2023-02-16T14:15:58.884Z,69.32
2023-02-16T14:18:32.746Z,69.61
2023-02-16T14:21:04.332Z,69.43
2023-02-16T14:23:34.699Z,69.42
2023-02-16T14:26:03.477Z,69.93
2023-02-16T14:29:16.071Z,69.86
2023-02-16T14:31:48.296Z,70.19
2023-02-16T14:34:21.471Z,70.49
2023-02-16T14:37:12.091Z,70.30
2023-02-16T14:40:04.153Z,70.23
2023-02-16T14:42:30.297Z,70.28
2023-02-16T14:45:19.700Z,70.48
2023-02-16T14:47:52.741Z,70.42
2023-02-16T14:50:35.157Z,71.03
2023-02-16T14:53:24.540Z,71.75
2023-02-16T14:56:25.729Z,72.46
2023-02-16T14:58:56.284Z,73.17
2023-02-16T15:01:24.876Z,73.26
2023-02-16T15:03:54.649Z,73.48
2023-02-16T15:06:31.935Z,73.49
2023-02-16T15:09:00.847Z,73.92
2023-02-16T15:11:31.488Z,74.20
2023-02-16T15:14:08.451Z,74.55
2023-02-16T15:16:38.869Z,74.61
2023-02-16T15:19:10.644Z,74.68
2023-02-16T15:21:40.304Z,75.47
2023-02-16T15:24:23.061Z,76.17
2023-02-16T15:26:55.932Z,76.25
2023-02-16T15:29:26.421Z,76.80
2023-02-16T15:31:54.669Z,77.20
2023-02-16T15:34:29.903Z,78.02
2023-02-16T15:36:59.522Z,78.10
2023-02-16T15:39:42.675Z,78.62
2023-02-16T15:42:19.923Z,79.61
2023-02-16T15:44:48.147Z,79.73
2023-02-16T15:47:17.552Z,80.56
2023-02-16T15:49:45.652Z,81.04
2023-02-16T15:52:17.675Z,81.74
2023-02-16T15:54:46.683Z,82.56
2023-02-16T15:57:20.066Z,82.99
2023-02-16T15:59:49.066Z,84.03
2023-02-16T16:02:18.559Z,86.27
2023-02-16T16:04:48.142Z,86.83
2023-02-16T16:07:18.853Z,87.54
2023-02-16T16:09:46.943Z,88.49
2023-02-16T16:12:15.739Z,89.83
2023-02-16T16:14:46.099Z,89.55
2023-02-16T16:17:15.629Z,90.75
2023-02-16T16:19:43.738Z,91.51
2023-02-16T16:22:40.130Z,92.60
2023-02-16T16:25:29.123Z,93.89
2023-02-16T16:27:57.245Z,94.61
2023-02-16T16:30:29.629Z,95.07
2023-02-16T16:33:02.365Z,95.64
2023-02-16T16:35:38.480Z,96.41
2023-02-16T16:38:10.414Z,97.18
2023-02-16T16:40:38.680Z,96.98
2023-02-16T16:43:15.218Z,97.07
2023-02-16T16:45:43.783Z,97.74
2023-02-16T16:48:17.732Z,98.02
2023-02-16T16:50:46.023Z,98.15
2023-02-16T16:53:55.064Z,98.82
2023-02-16T16:56:23.467Z,98.72
2023-02-16T16:58:51.815Z,98.71
2023-02-16T17:01:19.977Z,99.03
2023-02-16T17:03:55.566Z,99.42
2023-02-16T17:06:23.942Z,100.00
2023-02-16T17:08:52.089Z,99.87
2023-02-16T17:11:25.851Z,100.00
2023-02-16T17:13:54.869Z,100.00
2023-02-16T17:16:25.170Z,99.85
2023-02-16T17:18:53.229Z,100.00
2023-02-16T17:21:21.297Z,100.00
2023-02-16T17:23:53.140Z,100.00
2023-02-16T17:26:23.247Z,100.00
2023-02-16T17:28:52.237Z,100.00
2023-02-16T17:31:20.408Z,100.00
2023-02-16T17:33:48.551Z,100.00
2023-02-16T17:36:16.731Z,100.00
2023-02-16T17:38:44.934Z,100.00
2023-02-16T17:41:17.726Z,100.00
2023-02-16T17:43:47.419Z,100.00
2023-02-16T17:46:16.028Z,100.00
2023-02-16T17:48:44.112Z,100.00
2023-02-16T17:51:14.961Z,100.00
2023-02-16T17:53:43.071Z,99.76
2023-02-16T17:56:11.658Z,99.50
2023-02-16T17:58:39.791Z,99.13
2023-02-16T18:01:11.743Z,99.20
2023-02-16T18:03:39.812Z,99.38
2023-02-16T18:06:08.023Z,99.30
2023-02-16T18:08:36.065Z,99.43
2023-02-16T18:11:04.283Z,99.62
2023-02-16T18:13:32.480Z,99.76
2023-02-16T18:16:01.006Z,99.55
2023-02-16T18:18:30.463Z,99.40
2023-02-16T18:20:58.562Z,99.38
2023-02-16T18:23:26.605Z,99.97
2023-02-16T18:25:54.848Z,99.95
2023-02-16T18:28:26.799Z,99.99
2023-02-16T18:30:54.957Z,99.84
2023-02-16T18:33:23.246Z,99.66
2023-02-16T18:35:55.973Z,99.71
2023-02-16T18:38:24.568Z,100.00
2023-02-16T18:40:53.533Z,99.96
2023-02-16T18:43:21.621Z,100.00
2023-02-16T18:45:49.788Z,99.75
2023-02-16T18:48:17.922Z,99.35
2023-02-16T18:50:45.948Z,99.66
2023-02-16T18:53:15.706Z,98.68
2023-02-16T18:55:43.779Z,98.70
2023-02-16T18:58:12.304Z,98.59
2023-02-16T19:00:40.386Z,98.55
2023-02-16T19:03:08.655Z,98.60
2023-02-16T19:05:37.079Z,98.65
2023-02-16T19:08:05.416Z,98.39
2023-02-16T19:10:34.835Z,98.42
2023-02-16T19:13:03.221Z,98.28
2023-02-16T19:15:33.259Z,98.50
2023-02-16T19:18:01.719Z,98.13
2023-02-16T19:20:29.866Z,97.79
2023-02-16T19:22:57.965Z,97.77
2023-02-16T19:25:26.870Z,97.50
2023-02-16T19:27:57.226Z,98.14
2023-02-16T19:30:25.442Z,98.13
2023-02-16T19:32:53.903Z,98.70
2023-02-16T19:35:22.120Z,99.09
2023-02-16T19:37:51.490Z,99.82
2023-02-16T19:40:19.897Z,100.00
2023-02-16T19:42:47.927Z,100.00
2023-02-16T19:45:17.883Z,100.00
2023-02-16T19:47:46.276Z,100.00
2023-02-16T19:50:14.368Z,100.00
2023-02-16T19:52:42.489Z,100.00
2023-02-16T19:55:11.534Z,100.00
2023-02-16T19:57:40.061Z,100.00
2023-02-16T20:00:11.603Z,100.00
2023-02-16T20:02:43.967Z,100.00
2023-02-16T20:05:12.215Z,100.00
2023-02-16T20:07:40.515Z,100.00
2023-02-16T20:10:09.051Z,100.00
2023-02-16T20:12:37.189Z,100.00
2023-02-16T20:15:06.736Z,100.00
2023-02-16T20:17:34.973Z,100.00
2023-02-16T20:20:05.345Z,100.00
2023-02-16T20:22:33.571Z,100.00
2023-02-16T20:25:02.453Z,100.00
2023-02-16T20:27:30.926Z,100.00
2023-02-16T20:29:59.624Z,100.00
2023-02-16T20:32:28.313Z,100.00
2023-02-16T20:34:56.605Z,100.00
2023-02-16T20:37:26.348Z,100.00
2023-02-16T20:39:55.905Z,100.00
2023-02-16T20:42:24.054Z,100.00
2023-02-16T20:44:52.220Z,100.00
2023-02-16T20:47:20.450Z,100.00
2023-02-16T20:49:48.568Z,100.00
2023-02-16T20:52:16.748Z,100.00
2023-02-16T20:54:46.578Z,100.00
2023-02-16T20:57:26.002Z,100.00
2023-02-16T20:59:54.878Z,100.00
2023-02-16T21:02:23.138Z,100.00
2023-02-16T21:04:51.458Z,100.00
2023-02-16T21:07:19.958Z,100.00
2023-02-16T21:09:49.554Z,100.00
2023-02-16T21:12:17.757Z,100.00
2023-02-16T21:14:46.046Z,100.00
2023-02-16T21:17:14.223Z,100.00
2023-02-16T21:19:42.425Z,100.00
2023-02-16T21:22:10.864Z,100.00
2023-02-16T21:24:40.760Z,100.00
2023-02-16T21:27:10.397Z,100.00
2023-02-16T21:29:38.905Z,100.00
2023-02-16T21:32:07.203Z,100.00
2023-02-16T21:34:35.527Z,100.00
2023-02-16T21:37:04.491Z,100.00
2023-02-16T21:39:49.735Z,100.00
2023-02-16T21:42:19.356Z,100.00
2023-02-16T21:44:50.035Z,100.00
2023-02-16T21:47:36.183Z,100.00
2023-02-16T21:50:04.388Z,100.00
2023-02-16T21:52:32.552Z,100.00
2023-02-16T21:55:18.438Z,100.00
2023-02-16T21:57:47.950Z,100.00
2023-02-16T22:00:17.074Z,100.00
2023-02-16T22:02:45.448Z,100.00
2023-02-16T22:05:13.733Z,100.00
2023-02-16T22:07:41.980Z,100.00
2023-02-16T22:10:10.656Z,100.00
2023-02-16T22:12:38.994Z,100.00
2023-02-16T22:15:09.293Z,100.00
2023-02-16T22:17:37.511Z,100.00
2023-02-16T22:20:06.831Z,100.00
2023-02-16T22:22:35.063Z,100.00
2023-02-16T22:25:03.199Z,100.00
2023-02-16T22:27:31.393Z,100.00
2023-02-16T22:29:59.879Z,100.00
2023-02-16T22:32:29.591Z,100.00
2023-02-16T22:34:57.696Z,100.00
2023-02-16T22:37:25.922Z,100.00
2023-02-16T22:39:55.210Z,100.00
2023-02-16T22:42:23.665Z,100.00
2023-02-16T22:44:51.780Z,100.00
2023-02-16T22:47:20.065Z,100.00
2023-02-16T22:49:49.609Z,100.00
2023-02-16T22:52:17.843Z,100.00
2023-02-16T22:54:46.190Z,100.00
2023-02-16T22:57:14.622Z,100.00
2023-02-16T22:59:42.813Z,100.00
2023-02-16T23:02:10.905Z,100.00
2023-02-16T23:04:40.042Z,100.00
2023-02-16T23:07:10.709Z,100.00
2023-02-16T23:09:38.821Z,100.00
2023-02-16T23:12:07.611Z,100.00
2023-02-16T23:14:37.855Z,100.00
2023-02-16T23:17:05.983Z,100.00
2023-02-16T23:19:34.409Z,100.00
2023-02-16T23:22:02.550Z,100.00
2023-02-16T23:24:32.320Z,100.00
2023-02-16T23:27:00.476Z,100.00
2023-02-16T23:29:28.644Z,100.00
2023-02-16T23:31:56.841Z,100.00
2023-02-16T23:34:25.017Z,100.00
2023-02-16T23:36:53.185Z,100.00
2023-02-16T23:39:21.317Z,100.00
2023-02-16T23:41:50.818Z,100.00
2023-02-16T23:44:19.077Z,100.00
2023-02-16T23:46:47.152Z,100.00
2023-02-16T23:49:15.230Z,100.00
2023-02-16T23:51:43.323Z,100.00
2023-02-16T23:54:11.989Z,100.00
2023-02-16T23:56:40.715Z,100.00
2023-02-16T23:59:10.334Z,100.00
